sensor_id;sensor_type;location;lat;lon;timestamp;temperature;humidity
32524;DHT22;18965;52.242;20.886;2023-04-19T00:01:26;11.70;70.80
32524;DHT22;18965;52.242;20.886;2023-04-19T00:03:53;11.70;70.80
32524;DHT22;18965;52.242;20.886;2023-04-19T00:06:19;11.70;70.60
32524;DHT22;18965;52.242;20.886;2023-04-19T00:08:45;11.60;71.10
32524;DHT22;18965;52.242;20.886;2023-04-19T00:11:11;11.60;71.00
32524;DHT22;18965;52.242;20.886;2023-04-19T00:13:36;11.60;71.10
32524;DHT22;18965;52.242;20.886;2023-04-19T00:16:03;11.50;71.30
32524;DHT22;18965;52.242;20.886;2023-04-19T00:18:29;11.50;71.10
32524;DHT22;18965;52.242;20.886;2023-04-19T00:20:54;11.50;71.00
32524;DHT22;18965;52.242;20.886;2023-04-19T00:23:21;11.50;71.40
32524;DHT22;18965;52.242;20.886;2023-04-19T00:25:48;11.40;72.00
32524;DHT22;18965;52.242;20.886;2023-04-19T00:28:14;11.40;71.80
32524;DHT22;18965;52.242;20.886;2023-04-19T00:30:40;11.30;72.30
32524;DHT22;18965;52.242;20.886;2023-04-19T00:33:05;11.30;71.80
32524;DHT22;18965;52.242;20.886;2023-04-19T00:35:38;11.20;72.70
32524;DHT22;18965;52.242;20.886;2023-04-19T00:38:04;11.20;72.80
32524;DHT22;18965;52.242;20.886;2023-04-19T00:40:30;11.10;73.80
32524;DHT22;18965;52.242;20.886;2023-04-19T00:42:56;11.00;73.40
32524;DHT22;18965;52.242;20.886;2023-04-19T00:45:22;11.00;73.60
32524;DHT22;18965;52.242;20.886;2023-04-19T00:47:48;11.00;74.70
32524;DHT22;18965;52.242;20.886;2023-04-19T00:50:14;10.90;74.30
32524;DHT22;18965;52.242;20.886;2023-04-19T00:52:40;10.90;74.40
32524;DHT22;18965;52.242;20.886;2023-04-19T00:55:06;10.90;75.90
32524;DHT22;18965;52.242;20.886;2023-04-19T00:57:32;10.80;75.70
32524;DHT22;18965;52.242;20.886;2023-04-19T00:59:58;10.80;76.60
32524;DHT22;18965;52.242;20.886;2023-04-19T01:02:24;10.70;76.20
32524;DHT22;18965;52.242;20.886;2023-04-19T01:04:50;10.70;76.30
32524;DHT22;18965;52.242;20.886;2023-04-19T01:07:17;10.60;76.30
32524;DHT22;18965;52.242;20.886;2023-04-19T01:09:44;10.60;77.50
32524;DHT22;18965;52.242;20.886;2023-04-19T01:12:10;10.50;77.10
32524;DHT22;18965;52.242;20.886;2023-04-19T01:14:36;10.40;77.40
32524;DHT22;18965;52.242;20.886;2023-04-19T01:17:01;10.40;78.00
32524;DHT22;18965;52.242;20.886;2023-04-19T01:19:27;10.40;77.70
32524;DHT22;18965;52.242;20.886;2023-04-19T01:21:53;10.30;78.10
32524;DHT22;18965;52.242;20.886;2023-04-19T01:24:20;10.30;78.40
32524;DHT22;18965;52.242;20.886;2023-04-19T01:26:46;10.30;78.00
32524;DHT22;18965;52.242;20.886;2023-04-19T01:29:12;10.30;79.40
32524;DHT22;18965;52.242;20.886;2023-04-19T01:31:38;10.20;79.20
32524;DHT22;18965;52.242;20.886;2023-04-19T01:34:04;10.20;78.90
32524;DHT22;18965;52.242;20.886;2023-04-19T01:36:30;10.10;79.00
32524;DHT22;18965;52.242;20.886;2023-04-19T01:38:56;10.10;79.20
32524;DHT22;18965;52.242;20.886;2023-04-19T01:41:21;10.10;78.70
32524;DHT22;18965;52.242;20.886;2023-04-19T01:43:51;10.10;79.80
32524;DHT22;18965;52.242;20.886;2023-04-19T01:46:17;10.10;79.00
32524;DHT22;18965;52.242;20.886;2023-04-19T01:48:42;10.00;80.10
32524;DHT22;18965;52.242;20.886;2023-04-19T01:51:08;10.00;80.20
32524;DHT22;18965;52.242;20.886;2023-04-19T01:53:34;9.90;80.10
32524;DHT22;18965;52.242;20.886;2023-04-19T01:56:00;9.90;81.30
32524;DHT22;18965;52.242;20.886;2023-04-19T01:58:25;9.80;81.60
32524;DHT22;18965;52.242;20.886;2023-04-19T02:00:51;9.60;81.80
32524;DHT22;18965;52.242;20.886;2023-04-19T02:03:17;9.60;82.20
32524;DHT22;18965;52.242;20.886;2023-04-19T02:05:42;9.50;81.40
32524;DHT22;18965;52.242;20.886;2023-04-19T02:08:08;9.40;81.90
32524;DHT22;18965;52.242;20.886;2023-04-19T02:10:34;9.40;81.40
32524;DHT22;18965;52.242;20.886;2023-04-19T02:13:00;9.40;81.80
32524;DHT22;18965;52.242;20.886;2023-04-19T02:15:26;9.50;81.70
32524;DHT22;18965;52.242;20.886;2023-04-19T02:17:51;9.50;82.00
32524;DHT22;18965;52.242;20.886;2023-04-19T02:20:17;9.50;82.00
32524;DHT22;18965;52.242;20.886;2023-04-19T02:22:43;9.50;82.20
32524;DHT22;18965;52.242;20.886;2023-04-19T02:25:08;9.40;82.30
32524;DHT22;18965;52.242;20.886;2023-04-19T02:27:34;9.50;82.50
32524;DHT22;18965;52.242;20.886;2023-04-19T02:30:00;9.50;82.80
32524;DHT22;18965;52.242;20.886;2023-04-19T02:32:26;9.50;82.60
32524;DHT22;18965;52.242;20.886;2023-04-19T02:34:52;9.50;82.90
32524;DHT22;18965;52.242;20.886;2023-04-19T02:37:17;9.40;83.20
32524;DHT22;18965;52.242;20.886;2023-04-19T02:39:43;9.40;82.70
32524;DHT22;18965;52.242;20.886;2023-04-19T02:42:10;9.50;82.80
32524;DHT22;18965;52.242;20.886;2023-04-19T02:44:36;9.50;82.70
32524;DHT22;18965;52.242;20.886;2023-04-19T02:47:01;9.40;82.80
32524;DHT22;18965;52.242;20.886;2023-04-19T02:49:29;9.50;83.00
32524;DHT22;18965;52.242;20.886;2023-04-19T02:51:59;9.40;83.10
32524;DHT22;18965;52.242;20.886;2023-04-19T02:54:24;9.40;83.00
32524;DHT22;18965;52.242;20.886;2023-04-19T02:56:50;9.40;83.30
32524;DHT22;18965;52.242;20.886;2023-04-19T02:59:16;9.40;83.50
32524;DHT22;18965;52.242;20.886;2023-04-19T03:01:41;9.40;83.80
32524;DHT22;18965;52.242;20.886;2023-04-19T03:04:07;9.40;83.40
32524;DHT22;18965;52.242;20.886;2023-04-19T03:06:33;9.30;83.80
32524;DHT22;18965;52.242;20.886;2023-04-19T03:08:58;9.30;83.70
32524;DHT22;18965;52.242;20.886;2023-04-19T03:11:24;9.30;83.60
32524;DHT22;18965;52.242;20.886;2023-04-19T03:13:50;9.30;83.70
32524;DHT22;18965;52.242;20.886;2023-04-19T03:16:15;9.30;83.80
32524;DHT22;18965;52.242;20.886;2023-04-19T03:18:41;9.30;83.70
32524;DHT22;18965;52.242;20.886;2023-04-19T03:21:07;9.40;83.70
32524;DHT22;18965;52.242;20.886;2023-04-19T03:23:34;9.40;83.90
32524;DHT22;18965;52.242;20.886;2023-04-19T03:25:59;9.40;83.70
32524;DHT22;18965;52.242;20.886;2023-04-19T03:28:26;9.40;83.90
32524;DHT22;18965;52.242;20.886;2023-04-19T03:30:51;9.40;84.60
32524;DHT22;18965;52.242;20.886;2023-04-19T03:33:17;9.40;84.00
32524;DHT22;18965;52.242;20.886;2023-04-19T03:35:43;9.40;83.90
32524;DHT22;18965;52.242;20.886;2023-04-19T03:38:10;9.40;84.10
32524;DHT22;18965;52.242;20.886;2023-04-19T03:40:38;9.40;84.20
32524;DHT22;18965;52.242;20.886;2023-04-19T03:43:04;9.40;84.00
32524;DHT22;18965;52.242;20.886;2023-04-19T03:45:30;9.50;84.30
32524;DHT22;18965;52.242;20.886;2023-04-19T03:47:55;9.40;84.40
32524;DHT22;18965;52.242;20.886;2023-04-19T03:50:21;9.40;84.10
32524;DHT22;18965;52.242;20.886;2023-04-19T03:52:47;9.40;84.00
32524;DHT22;18965;52.242;20.886;2023-04-19T03:55:12;9.40;84.00
32524;DHT22;18965;52.242;20.886;2023-04-19T03:57:38;9.40;85.10
32524;DHT22;18965;52.242;20.886;2023-04-19T04:00:06;9.40;84.40
32524;DHT22;18965;52.242;20.886;2023-04-19T04:02:32;9.40;84.20
32524;DHT22;18965;52.242;20.886;2023-04-19T04:04:58;9.40;84.00
32524;DHT22;18965;52.242;20.886;2023-04-19T04:07:24;9.40;84.00
32524;DHT22;18965;52.242;20.886;2023-04-19T04:09:50;9.40;84.00
32524;DHT22;18965;52.242;20.886;2023-04-19T04:12:16;9.50;84.10
32524;DHT22;18965;52.242;20.886;2023-04-19T04:14:41;9.50;84.10
32524;DHT22;18965;52.242;20.886;2023-04-19T04:17:07;9.10;83.90
32524;DHT22;18965;52.242;20.886;2023-04-19T04:19:33;9.40;84.30
32524;DHT22;18965;52.242;20.886;2023-04-19T04:21:58;9.50;84.30
32524;DHT22;18965;52.242;20.886;2023-04-19T04:24:24;9.50;84.40
32524;DHT22;18965;52.242;20.886;2023-04-19T04:26:50;9.40;84.10
32524;DHT22;18965;52.242;20.886;2023-04-19T04:29:16;9.40;84.00
32524;DHT22;18965;52.242;20.886;2023-04-19T04:31:42;9.40;84.20
32524;DHT22;18965;52.242;20.886;2023-04-19T04:34:08;9.40;84.10
32524;DHT22;18965;52.242;20.886;2023-04-19T04:36:34;9.40;84.40
32524;DHT22;18965;52.242;20.886;2023-04-19T04:39:02;9.40;84.40
32524;DHT22;18965;52.242;20.886;2023-04-19T04:41:28;9.40;84.20
32524;DHT22;18965;52.242;20.886;2023-04-19T04:43:56;9.40;84.30
32524;DHT22;18965;52.242;20.886;2023-04-19T04:46:23;9.40;84.50
32524;DHT22;18965;52.242;20.886;2023-04-19T04:48:48;9.40;84.70
32524;DHT22;18965;52.242;20.886;2023-04-19T04:51:14;9.40;84.50
32524;DHT22;18965;52.242;20.886;2023-04-19T04:53:40;9.40;84.50
32524;DHT22;18965;52.242;20.886;2023-04-19T04:56:05;9.40;84.50
32524;DHT22;18965;52.242;20.886;2023-04-19T04:58:31;9.40;84.40
32524;DHT22;18965;52.242;20.886;2023-04-19T05:00:57;9.50;84.50
32524;DHT22;18965;52.242;20.886;2023-04-19T05:03:22;9.40;84.50
32524;DHT22;18965;52.242;20.886;2023-04-19T05:05:48;9.40;84.60
32524;DHT22;18965;52.242;20.886;2023-04-19T05:08:14;9.50;84.90
32524;DHT22;18965;52.242;20.886;2023-04-19T05:10:40;9.40;84.80
32524;DHT22;18965;52.242;20.886;2023-04-19T05:13:05;9.40;84.80
32524;DHT22;18965;52.242;20.886;2023-04-19T05:15:31;9.50;85.00
32524;DHT22;18965;52.242;20.886;2023-04-19T05:17:57;9.50;85.20
32524;DHT22;18965;52.242;20.886;2023-04-19T05:20:22;9.40;85.10
32524;DHT22;18965;52.242;20.886;2023-04-19T05:22:48;9.50;85.20
32524;DHT22;18965;52.242;20.886;2023-04-19T05:25:14;9.50;85.10
32524;DHT22;18965;52.242;20.886;2023-04-19T05:27:39;9.50;85.10
32524;DHT22;18965;52.242;20.886;2023-04-19T05:30:05;9.40;85.00
32524;DHT22;18965;52.242;20.886;2023-04-19T05:32:31;9.50;85.20
32524;DHT22;18965;52.242;20.886;2023-04-19T05:34:57;9.40;85.00
32524;DHT22;18965;52.242;20.886;2023-04-19T05:37:23;9.50;85.30
32524;DHT22;18965;52.242;20.886;2023-04-19T05:39:48;9.50;85.50
32524;DHT22;18965;52.242;20.886;2023-04-19T05:42:14;9.50;85.60
32524;DHT22;18965;52.242;20.886;2023-04-19T05:44:40;9.50;85.50
32524;DHT22;18965;52.242;20.886;2023-04-19T05:47:06;9.60;85.70
32524;DHT22;18965;52.242;20.886;2023-04-19T05:49:31;9.60;85.80
32524;DHT22;18965;52.242;20.886;2023-04-19T05:51:57;9.60;85.50
32524;DHT22;18965;52.242;20.886;2023-04-19T05:54:23;9.60;85.40
32524;DHT22;18965;52.242;20.886;2023-04-19T05:56:49;9.60;85.30
32524;DHT22;18965;52.242;20.886;2023-04-19T05:59:14;9.60;85.30
32524;DHT22;18965;52.242;20.886;2023-04-19T06:01:40;9.70;85.50
32524;DHT22;18965;52.242;20.886;2023-04-19T06:04:06;9.70;85.50
32524;DHT22;18965;52.242;20.886;2023-04-19T06:06:31;9.70;85.40
32524;DHT22;18965;52.242;20.886;2023-04-19T06:08:57;9.70;85.40
32524;DHT22;18965;52.242;20.886;2023-04-19T06:11:23;9.70;85.40
32524;DHT22;18965;52.242;20.886;2023-04-19T06:13:48;9.60;85.40
32524;DHT22;18965;52.242;20.886;2023-04-19T06:16:15;9.70;85.40
32524;DHT22;18965;52.242;20.886;2023-04-19T06:18:41;9.70;85.40
32524;DHT22;18965;52.242;20.886;2023-04-19T06:21:07;9.70;85.30
32524;DHT22;18965;52.242;20.886;2023-04-19T06:23:33;9.70;85.30
32524;DHT22;18965;52.242;20.886;2023-04-19T06:25:59;9.70;85.40
32524;DHT22;18965;52.242;20.886;2023-04-19T06:28:24;9.60;85.10
32524;DHT22;18965;52.242;20.886;2023-04-19T06:30:50;9.60;85.10
32524;DHT22;18965;52.242;20.886;2023-04-19T06:33:16;9.60;85.20
32524;DHT22;18965;52.242;20.886;2023-04-19T06:35:41;9.60;85.30
32524;DHT22;18965;52.242;20.886;2023-04-19T06:38:07;9.60;85.30
32524;DHT22;18965;52.242;20.886;2023-04-19T06:40:33;9.60;85.30
32524;DHT22;18965;52.242;20.886;2023-04-19T06:42:59;9.70;85.50
32524;DHT22;18965;52.242;20.886;2023-04-19T06:45:25;9.70;85.50
32524;DHT22;18965;52.242;20.886;2023-04-19T06:47:51;9.70;85.50
32524;DHT22;18965;52.242;20.886;2023-04-19T06:50:16;9.70;85.50
32524;DHT22;18965;52.242;20.886;2023-04-19T06:52:42;9.70;85.50
32524;DHT22;18965;52.242;20.886;2023-04-19T06:55:08;9.70;85.40
32524;DHT22;18965;52.242;20.886;2023-04-19T06:57:34;9.70;85.50
32524;DHT22;18965;52.242;20.886;2023-04-19T07:00:00;9.70;85.30
32524;DHT22;18965;52.242;20.886;2023-04-19T07:02:25;9.80;85.60
32524;DHT22;18965;52.242;20.886;2023-04-19T07:04:51;9.90;86.20
32524;DHT22;18965;52.242;20.886;2023-04-19T07:07:17;9.90;85.90
32524;DHT22;18965;52.242;20.886;2023-04-19T07:09:43;10.00;86.00
32524;DHT22;18965;52.242;20.886;2023-04-19T07:12:08;10.10;86.70
32524;DHT22;18965;52.242;20.886;2023-04-19T07:14:35;10.30;86.10
32524;DHT22;18965;52.242;20.886;2023-04-19T07:17:00;10.40;85.70
32524;DHT22;18965;52.242;20.886;2023-04-19T07:19:28;10.40;85.50
32524;DHT22;18965;52.242;20.886;2023-04-19T07:21:53;10.50;85.30
32524;DHT22;18965;52.242;20.886;2023-04-19T07:24:19;10.60;85.40
32524;DHT22;18965;52.242;20.886;2023-04-19T07:26:45;10.70;85.40
32524;DHT22;18965;52.242;20.886;2023-04-19T07:29:10;10.90;85.60
32524;DHT22;18965;52.242;20.886;2023-04-19T07:31:36;11.00;85.30
32524;DHT22;18965;52.242;20.886;2023-04-19T07:34:02;11.00;85.00
32524;DHT22;18965;52.242;20.886;2023-04-19T07:36:28;11.10;84.70
32524;DHT22;18965;52.242;20.886;2023-04-19T07:38:54;11.00;84.20
32524;DHT22;18965;52.242;20.886;2023-04-19T07:41:19;11.00;83.90
32524;DHT22;18965;52.242;20.886;2023-04-19T07:43:45;10.90;83.80
32524;DHT22;18965;52.242;20.886;2023-04-19T07:46:12;10.90;83.90
32524;DHT22;18965;52.242;20.886;2023-04-19T07:48:38;10.90;84.00
32524;DHT22;18965;52.242;20.886;2023-04-19T07:51:11;10.80;84.10
32524;DHT22;18965;52.242;20.886;2023-04-19T07:53:38;10.80;84.10
32524;DHT22;18965;52.242;20.886;2023-04-19T07:56:09;10.70;84.30
32524;DHT22;18965;52.242;20.886;2023-04-19T07:58:35;10.70;84.40
32524;DHT22;18965;52.242;20.886;2023-04-19T08:01:02;10.80;84.40
32524;DHT22;18965;52.242;20.886;2023-04-19T08:03:29;10.80;84.50
32524;DHT22;18965;52.242;20.886;2023-04-19T08:05:54;10.80;84.40
32524;DHT22;18965;52.242;20.886;2023-04-19T08:08:20;10.80;84.30
32524;DHT22;18965;52.242;20.886;2023-04-19T08:10:46;10.80;84.30
32524;DHT22;18965;52.242;20.886;2023-04-19T08:13:12;10.70;83.90
32524;DHT22;18965;52.242;20.886;2023-04-19T08:15:38;10.70;83.80
32524;DHT22;18965;52.242;20.886;2023-04-19T08:18:04;10.70;83.90
32524;DHT22;18965;52.242;20.886;2023-04-19T08:20:30;10.70;83.90
32524;DHT22;18965;52.242;20.886;2023-04-19T08:22:57;10.70;83.40
32524;DHT22;18965;52.242;20.886;2023-04-19T08:25:23;10.70;83.40
32524;DHT22;18965;52.242;20.886;2023-04-19T08:28:07;10.60;83.40
32524;DHT22;18965;52.242;20.886;2023-04-19T08:30:39;10.60;83.40
32524;DHT22;18965;52.242;20.886;2023-04-19T08:33:05;10.70;83.50
32524;DHT22;18965;52.242;20.886;2023-04-19T08:35:33;10.70;83.50
32524;DHT22;18965;52.242;20.886;2023-04-19T08:37:58;10.80;83.60
32524;DHT22;18965;52.242;20.886;2023-04-19T08:40:24;10.90;83.90
32524;DHT22;18965;52.242;20.886;2023-04-19T08:42:50;11.00;83.90
32524;DHT22;18965;52.242;20.886;2023-04-19T08:45:16;11.10;83.70
32524;DHT22;18965;52.242;20.886;2023-04-19T08:47:42;11.20;83.60
32524;DHT22;18965;52.242;20.886;2023-04-19T08:50:09;11.40;83.40
32524;DHT22;18965;52.242;20.886;2023-04-19T08:52:36;11.50;83.20
32524;DHT22;18965;52.242;20.886;2023-04-19T08:55:06;11.60;82.90
32524;DHT22;18965;52.242;20.886;2023-04-19T08:57:33;11.70;82.50
32524;DHT22;18965;52.242;20.886;2023-04-19T09:00:00;11.80;82.50
32524;DHT22;18965;52.242;20.886;2023-04-19T09:02:25;11.90;82.50
32524;DHT22;18965;52.242;20.886;2023-04-19T09:04:51;11.90;82.20
32524;DHT22;18965;52.242;20.886;2023-04-19T09:07:27;11.90;81.00
32524;DHT22;18965;52.242;20.886;2023-04-19T09:10:17;12.00;81.50
32524;DHT22;18965;52.242;20.886;2023-04-19T09:13:01;12.10;81.40
32524;DHT22;18965;52.242;20.886;2023-04-19T09:15:39;12.20;80.80
32524;DHT22;18965;52.242;20.886;2023-04-19T09:18:09;12.30;80.70
32524;DHT22;18965;52.242;20.886;2023-04-19T09:20:39;12.30;80.50
32524;DHT22;18965;52.242;20.886;2023-04-19T09:23:07;12.30;80.20
32524;DHT22;18965;52.242;20.886;2023-04-19T09:25:33;12.30;80.30
32524;DHT22;18965;52.242;20.886;2023-04-19T09:28:13;12.30;80.70
32524;DHT22;18965;52.242;20.886;2023-04-19T09:30:40;12.40;80.90
32524;DHT22;18965;52.242;20.886;2023-04-19T09:33:06;12.50;80.70
32524;DHT22;18965;52.242;20.886;2023-04-19T09:35:59;12.50;79.70
32524;DHT22;18965;52.242;20.886;2023-04-19T09:38:25;12.50;78.00
32524;DHT22;18965;52.242;20.886;2023-04-19T09:40:51;12.40;78.90
32524;DHT22;18965;52.242;20.886;2023-04-19T09:43:23;12.40;78.80
32524;DHT22;18965;52.242;20.886;2023-04-19T09:45:50;12.40;78.70
32524;DHT22;18965;52.242;20.886;2023-04-19T09:48:16;12.40;78.80
32524;DHT22;18965;52.242;20.886;2023-04-19T09:50:56;12.40;78.70
32524;DHT22;18965;52.242;20.886;2023-04-19T09:53:23;12.40;78.40
32524;DHT22;18965;52.242;20.886;2023-04-19T09:55:49;12.40;78.90
32524;DHT22;18965;52.242;20.886;2023-04-19T09:58:16;12.50;79.40
32524;DHT22;18965;52.242;20.886;2023-04-19T10:00:46;12.60;79.30
32524;DHT22;18965;52.242;20.886;2023-04-19T10:03:15;12.70;79.10
32524;DHT22;18965;52.242;20.886;2023-04-19T10:05:42;12.70;78.70
32524;DHT22;18965;52.242;20.886;2023-04-19T10:08:10;12.70;78.70
32524;DHT22;18965;52.242;20.886;2023-04-19T10:10:36;12.70;78.60
32524;DHT22;18965;52.242;20.886;2023-04-19T10:13:06;12.70;78.30
32524;DHT22;18965;52.242;20.886;2023-04-19T10:15:35;12.70;77.90
32524;DHT22;18965;52.242;20.886;2023-04-19T10:18:03;12.60;78.60
32524;DHT22;18965;52.242;20.886;2023-04-19T10:20:58;12.60;78.00
32524;DHT22;18965;52.242;20.886;2023-04-19T10:23:26;12.60;78.20
32524;DHT22;18965;52.242;20.886;2023-04-19T10:25:56;12.70;78.30
32524;DHT22;18965;52.242;20.886;2023-04-19T10:28:22;12.60;77.60
32524;DHT22;18965;52.242;20.886;2023-04-19T10:30:59;12.60;77.90
32524;DHT22;18965;52.242;20.886;2023-04-19T10:33:29;12.60;77.50
32524;DHT22;18965;52.242;20.886;2023-04-19T10:35:57;12.50;77.20
32524;DHT22;18965;52.242;20.886;2023-04-19T10:41:07;12.40;77.40
32524;DHT22;18965;52.242;20.886;2023-04-19T10:46:34;12.30;77.40
32524;DHT22;18965;52.242;20.886;2023-04-19T10:49:01;12.30;77.60
32524;DHT22;18965;52.242;20.886;2023-04-19T10:51:35;12.30;77.40
32524;DHT22;18965;52.242;20.886;2023-04-19T10:54:02;12.30;77.50
32524;DHT22;18965;52.242;20.886;2023-04-19T11:04:08;12.30;77.60
32524;DHT22;18965;52.242;20.886;2023-04-19T11:06:56;12.30;77.60
32524;DHT22;18965;52.242;20.886;2023-04-19T11:09:29;12.30;77.50
32524;DHT22;18965;52.242;20.886;2023-04-19T11:12:07;12.30;77.20
32524;DHT22;18965;52.242;20.886;2023-04-19T11:14:42;12.30;77.10
32524;DHT22;18965;52.242;20.886;2023-04-19T11:20:01;12.30;77.30
32524;DHT22;18965;52.242;20.886;2023-04-19T11:22:41;12.40;77.40
32524;DHT22;18965;52.242;20.886;2023-04-19T11:27:34;12.50;77.10
32524;DHT22;18965;52.242;20.886;2023-04-19T11:30:11;12.60;76.80
32524;DHT22;18965;52.242;20.886;2023-04-19T11:32:48;12.60;76.30
32524;DHT22;18965;52.242;20.886;2023-04-19T11:35:17;12.60;76.00
32524;DHT22;18965;52.242;20.886;2023-04-19T11:37:43;12.60;76.40
32524;DHT22;18965;52.242;20.886;2023-04-19T11:40:13;12.70;76.50
32524;DHT22;18965;52.242;20.886;2023-04-19T11:42:40;12.80;76.30
32524;DHT22;18965;52.242;20.886;2023-04-19T11:45:06;12.80;76.30
32524;DHT22;18965;52.242;20.886;2023-04-19T11:47:32;12.90;76.10
32524;DHT22;18965;52.242;20.886;2023-04-19T11:52:56;13.10;76.70
32524;DHT22;18965;52.242;20.886;2023-04-19T11:55:22;13.20;76.40
32524;DHT22;18965;52.242;20.886;2023-04-19T11:57:48;13.40;76.50
32524;DHT22;18965;52.242;20.886;2023-04-19T12:00:14;13.50;75.90
32524;DHT22;18965;52.242;20.886;2023-04-19T12:02:45;13.60;75.20
32524;DHT22;18965;52.242;20.886;2023-04-19T12:05:12;13.70;74.90
32524;DHT22;18965;52.242;20.886;2023-04-19T12:08:17;13.80;75.10
32524;DHT22;18965;52.242;20.886;2023-04-19T12:10:55;13.80;74.80
32524;DHT22;18965;52.242;20.886;2023-04-19T12:13:21;13.90;74.60
32524;DHT22;18965;52.242;20.886;2023-04-19T12:15:49;14.00;74.50
32524;DHT22;18965;52.242;20.886;2023-04-19T12:18:14;14.10;75.00
32524;DHT22;18965;52.242;20.886;2023-04-19T12:20:45;14.20;75.10
32524;DHT22;18965;52.242;20.886;2023-04-19T12:23:11;14.40;75.00
32524;DHT22;18965;52.242;20.886;2023-04-19T12:25:39;14.60;74.40
32524;DHT22;18965;52.242;20.886;2023-04-19T12:28:05;14.70;74.30
32524;DHT22;18965;52.242;20.886;2023-04-19T12:30:31;14.90;74.20
32524;DHT22;18965;52.242;20.886;2023-04-19T12:32:57;15.00;73.70
32524;DHT22;18965;52.242;20.886;2023-04-19T12:35:25;14.90;72.70
32524;DHT22;18965;52.242;20.886;2023-04-19T12:37:52;14.90;72.20
32524;DHT22;18965;52.242;20.886;2023-04-19T12:40:19;14.90;72.40
32524;DHT22;18965;52.242;20.886;2023-04-19T12:42:45;14.80;72.10
32524;DHT22;18965;52.242;20.886;2023-04-19T12:45:12;14.70;72.00
32524;DHT22;18965;52.242;20.886;2023-04-19T12:47:38;14.70;72.40
32524;DHT22;18965;52.242;20.886;2023-04-19T12:50:05;14.60;72.00
32524;DHT22;18965;52.242;20.886;2023-04-19T12:52:31;14.50;72.00
32524;DHT22;18965;52.242;20.886;2023-04-19T12:54:57;14.40;72.10
32524;DHT22;18965;52.242;20.886;2023-04-19T12:57:23;14.30;72.50
32524;DHT22;18965;52.242;20.886;2023-04-19T12:59:49;14.20;72.80
32524;DHT22;18965;52.242;20.886;2023-04-19T13:05:24;14.10;73.50
32524;DHT22;18965;52.242;20.886;2023-04-19T13:07:50;14.10;73.80
32524;DHT22;18965;52.242;20.886;2023-04-19T13:10:16;14.20;74.20
32524;DHT22;18965;52.242;20.886;2023-04-19T13:12:41;14.20;74.30
32524;DHT22;18965;52.242;20.886;2023-04-19T13:15:08;14.30;74.20
32524;DHT22;18965;52.242;20.886;2023-04-19T13:17:34;14.30;73.70
32524;DHT22;18965;52.242;20.886;2023-04-19T13:20:01;14.40;74.20
32524;DHT22;18965;52.242;20.886;2023-04-19T13:22:26;14.50;74.50
32524;DHT22;18965;52.242;20.886;2023-04-19T13:24:52;14.60;74.40
32524;DHT22;18965;52.242;20.886;2023-04-19T13:27:18;14.80;74.20
32524;DHT22;18965;52.242;20.886;2023-04-19T13:29:43;14.90;73.80
32524;DHT22;18965;52.242;20.886;2023-04-19T13:32:09;15.00;73.10
32524;DHT22;18965;52.242;20.886;2023-04-19T13:34:37;15.10;73.10
32524;DHT22;18965;52.242;20.886;2023-04-19T13:37:03;15.20;72.70
32524;DHT22;18965;52.242;20.886;2023-04-19T13:39:29;15.20;72.30
32524;DHT22;18965;52.242;20.886;2023-04-19T13:41:55;15.20;71.90
32524;DHT22;18965;52.242;20.886;2023-04-19T13:44:21;15.30;72.00
32524;DHT22;18965;52.242;20.886;2023-04-19T13:46:46;15.40;72.00
32524;DHT22;18965;52.242;20.886;2023-04-19T13:49:12;15.40;72.10
32524;DHT22;18965;52.242;20.886;2023-04-19T13:51:38;15.50;71.70
32524;DHT22;18965;52.242;20.886;2023-04-19T13:54:03;15.60;70.90
32524;DHT22;18965;52.242;20.886;2023-04-19T13:56:29;15.50;69.90
32524;DHT22;18965;52.242;20.886;2023-04-19T13:58:55;15.40;69.50
32524;DHT22;18965;52.242;20.886;2023-04-19T14:01:20;15.40;69.50
32524;DHT22;18965;52.242;20.886;2023-04-19T14:03:46;15.40;69.20
32524;DHT22;18965;52.242;20.886;2023-04-19T14:06:12;15.40;69.20
32524;DHT22;18965;52.242;20.886;2023-04-19T14:08:37;15.30;68.70
32524;DHT22;18965;52.242;20.886;2023-04-19T14:11:03;15.40;68.60
32524;DHT22;18965;52.242;20.886;2023-04-19T14:13:29;15.40;68.40
32524;DHT22;18965;52.242;20.886;2023-04-19T14:15:55;15.40;68.30
32524;DHT22;18965;52.242;20.886;2023-04-19T14:18:21;15.40;68.20
32524;DHT22;18965;52.242;20.886;2023-04-19T14:20:46;15.40;68.10
32524;DHT22;18965;52.242;20.886;2023-04-19T14:23:12;15.30;67.80
32524;DHT22;18965;52.242;20.886;2023-04-19T14:25:38;15.20;67.60
32524;DHT22;18965;52.242;20.886;2023-04-19T14:28:04;15.20;68.10
32524;DHT22;18965;52.242;20.886;2023-04-19T14:30:29;15.10;67.80
32524;DHT22;18965;52.242;20.886;2023-04-19T14:32:55;15.10;68.20
32524;DHT22;18965;52.242;20.886;2023-04-19T14:35:21;15.10;68.20
32524;DHT22;18965;52.242;20.886;2023-04-19T14:37:46;15.10;68.10
32524;DHT22;18965;52.242;20.886;2023-04-19T14:40:12;15.00;67.70
32524;DHT22;18965;52.242;20.886;2023-04-19T14:42:38;15.00;67.80
32524;DHT22;18965;52.242;20.886;2023-04-19T14:45:04;15.00;68.10
32524;DHT22;18965;52.242;20.886;2023-04-19T14:47:30;14.90;68.30
32524;DHT22;18965;52.242;20.886;2023-04-19T14:49:56;14.90;68.20
32524;DHT22;18965;52.242;20.886;2023-04-19T14:52:21;14.80;68.10
32524;DHT22;18965;52.242;20.886;2023-04-19T14:54:48;14.80;67.70
32524;DHT22;18965;52.242;20.886;2023-04-19T14:57:14;14.80;68.00
32524;DHT22;18965;52.242;20.886;2023-04-19T14:59:40;14.80;68.20
32524;DHT22;18965;52.242;20.886;2023-04-19T15:02:06;14.80;68.10
32524;DHT22;18965;52.242;20.886;2023-04-19T15:04:35;14.70;68.10
32524;DHT22;18965;52.242;20.886;2023-04-19T15:07:02;14.80;68.40
32524;DHT22;18965;52.242;20.886;2023-04-19T15:09:28;14.80;68.30
32524;DHT22;18965;52.242;20.886;2023-04-19T15:11:53;14.80;68.30
32524;DHT22;18965;52.242;20.886;2023-04-19T15:14:19;14.80;68.20
32524;DHT22;18965;52.242;20.886;2023-04-19T15:16:45;14.80;68.40
32524;DHT22;18965;52.242;20.886;2023-04-19T15:19:11;14.90;68.20
32524;DHT22;18965;52.242;20.886;2023-04-19T15:21:37;14.90;68.10
32524;DHT22;18965;52.242;20.886;2023-04-19T15:24:03;14.90;68.40
32524;DHT22;18965;52.242;20.886;2023-04-19T15:26:29;14.90;68.40
32524;DHT22;18965;52.242;20.886;2023-04-19T15:28:56;14.90;68.10
32524;DHT22;18965;52.242;20.886;2023-04-19T15:31:23;15.00;68.10
32524;DHT22;18965;52.242;20.886;2023-04-19T15:33:49;14.90;68.10
32524;DHT22;18965;52.242;20.886;2023-04-19T15:36:15;14.90;68.10
32524;DHT22;18965;52.242;20.886;2023-04-19T15:38:40;14.80;68.20
32524;DHT22;18965;52.242;20.886;2023-04-19T15:41:06;14.70;68.10
32524;DHT22;18965;52.242;20.886;2023-04-19T15:43:32;14.60;67.50